Cairo, Iowa
Current Conditions -  °F | °C
As of 2:35 AM on Wednesday 26 Nov 2014 (Local Time) from KAWG Reporting Station
Clear Clear  
Wind Chill: 12°   Ceiling: Unl
Heat Index: 21°   Visibility: 10mi
Dew Point: 21°   Wind: 8mph
Humidity: 100%   Direction: 110°ESE
Pressure: 30.04"   Gusts: NA
Location:  41.2636°N, 91.4145°W
Report Text: KAWG 260835Z AUTO 11007KT 10SM CLR M06/M06 A3004 RMK AO2
Loading
Personal Weather Stations






























Interactive Weather Map New forecast layout! Learn more

10-Day Weather Forecast

Advertisements
Track Severe Weather on mobile